.
WxDataArchive / Data Records for 2016-03-04
2016-03-03 March 2016 2016-03-05

Data Records for Friday, 04 March 2016

Time	Temp	Chill	HIndex	Humid	Dewpt	 Wind 	HiWind	WindDir	Rain 	Barom
-----	----	-----	------	-----	-----	------	------	-------	-----	-----
00:00	30.4	30.4	30.4	94	28.9	0	0	---	0.00	30.036 
00:05	30.4	30.4	30.4	94	28.9	0	0	---	0.00	30.036 
00:10	30.4	30.4	30.4	94	28.9	0	0	---	0.00	30.036 
00:15	30.3	30.3	30.3	94	28.8	0	0	---	0.00	30.034 
00:20	30.3	30.3	30.3	94	28.8	0	0	---	0.00	30.034 
00:25	30.3	30.3	30.3	94	28.8	0	0	---	0.00	30.034 
00:30	30.3	30.3	30.3	94	28.8	0	0	---	0.00	30.032 
00:35	30.0	30.0	30.0	94	28.5	0	0	---	0.00	30.032 
00:40	29.8	29.8	29.8	94	28.3	0	0	---	0.00	30.032 
00:45	29.5	29.5	29.5	94	28.0	0	0	---	0.00	30.036 
00:50	29.4	29.4	29.4	94	27.9	0	0	---	0.00	30.036 
00:55	29.3	29.3	29.3	94	27.8	0	0	---	0.00	30.036 
01:00	29.3	29.3	29.3	94	27.8	0	0	---	0.00	30.044 
01:05	29.1	29.1	29.1	94	27.6	0	0	---	0.00	30.044 
01:10	29.0	29.0	29.0	93	27.2	0	0	---	0.00	30.044 
01:15	29.0	29.0	29.0	93	27.2	0	0	---	0.00	30.045 
01:20	28.8	28.8	28.8	93	27.0	0	0	---	0.00	30.045 
01:25	28.8	28.8	28.8	93	27.0	0	0	---	0.00	30.045 
01:30	28.7	28.7	28.7	93	26.9	0	0	---	0.00	30.054 
01:35	28.7	28.7	28.7	93	26.9	0	0	---	0.00	30.054 
01:40	28.7	28.7	28.7	93	26.9	0	0	---	0.00	30.054 
01:45	28.5	28.5	28.5	93	26.7	0	0	---	0.00	30.055 
01:50	28.5	28.5	28.5	93	26.7	0	0	---	0.00	30.055 
01:55	28.5	28.5	28.5	93	26.7	0	0	---	0.00	30.055 
02:00	28.4	28.4	28.4	93	26.6	0	0	---	0.00	30.060 
02:05	28.4	28.4	28.4	93	26.6	0	0	---	0.00	30.060 
02:10	28.4	28.4	28.4	93	26.6	0	0	---	0.00	30.060 
02:15	28.4	28.4	28.4	93	26.6	0	0	---	0.00	30.058 
02:20	28.4	28.4	28.4	93	26.6	0	0	---	0.00	30.058 
02:25	28.4	28.4	28.4	93	26.6	0	0	---	0.00	30.058 
02:30	28.4	28.4	28.4	93	26.6	0	0	---	0.00	30.060 
02:35	28.2	28.2	28.2	93	26.4	0	0	---	0.00	30.060 
02:40	28.2	28.2	28.2	93	26.4	0	0	---	0.00	30.060 
02:45	28.2	28.2	28.2	93	26.4	0	0	---	0.00	30.061 
02:50	28.2	28.2	28.2	93	26.4	0	0	---	0.00	30.061 
02:55	28.2	28.2	28.2	93	26.4	0	0	---	0.00	30.061 
03:00	28.2	28.2	28.2	93	26.4	0	0	---	0.00	30.061 
03:05	28.1	28.1	28.1	92	26.1	0	0	---	0.00	30.061 
03:10	28.1	28.1	28.1	92	26.1	0	0	---	0.00	30.061 
03:15	28.1	28.1	28.1	92	26.1	0	0	---	0.00	30.060 
03:20	28.1	28.1	28.1	92	26.1	0	0	---	0.00	30.060 
03:25	27.9	27.9	27.9	92	25.9	0	0	---	0.00	30.060 
03:30	27.9	27.9	27.9	92	25.9	0	0	---	0.00	30.061 
03:35	27.9	27.9	27.9	92	25.9	0	0	---	0.00	30.061 
03:40	27.9	27.9	27.9	92	25.9	0	0	---	0.00	30.061 
03:45	27.9	27.9	27.9	92	25.9	0	0	---	0.00	30.061 
03:50	27.9	27.9	27.9	92	25.9	0	0	---	0.00	30.061 
03:55	27.9	27.9	27.9	92	25.9	0	0	---	0.00	30.061 
04:00	27.9	27.9	27.9	92	25.9	0	0	---	0.00	30.064 
04:05	27.8	27.8	27.8	92	25.8	0	0	---	0.00	30.064 
04:10	27.8	27.8	27.8	92	25.8	0	0	---	0.00	30.064 
04:15	27.8	27.8	27.8	92	25.8	0	0	---	0.00	30.068 
04:20	27.8	27.8	27.8	92	25.8	0	0	---	0.00	30.068 
04:25	27.8	27.8	27.8	91	25.5	0	0	---	0.00	30.068 
04:30	27.6	27.6	27.6	91	25.3	0	0	---	0.00	30.072 
04:35	27.6	27.6	27.6	91	25.3	0	0	---	0.00	30.072 
04:40	27.6	27.6	27.6	91	25.3	0	0	---	0.00	30.072 
04:45	27.6	27.6	27.6	91	25.3	0	0	---	0.00	30.075 
04:50	27.5	27.5	27.5	91	25.2	0	0	---	0.00	30.075 
04:55	27.5	27.5	27.5	91	25.2	0	0	---	0.00	30.075 
05:00	27.5	27.5	27.5	91	25.2	0	0	---	0.00	30.078 
05:05	27.5	27.5	27.5	91	25.2	0	0	---	0.00	30.078 
05:10	27.5	27.5	27.5	91	25.2	0	0	---	0.00	30.078 
05:15	27.5	27.5	27.5	90	25.0	0	0	---	0.00	30.085 
05:20	27.5	27.5	27.5	90	25.0	0	0	---	0.00	30.085 
05:25	27.3	27.3	27.3	90	24.8	0	0	---	0.00	30.085 
05:30	27.3	27.3	27.3	90	24.8	0	0	---	0.00	30.092 
05:35	27.3	27.3	27.3	90	24.8	0	0	---	0.00	30.092 
05:40	27.3	27.3	27.3	90	24.8	0	0	---	0.00	30.092 
05:45	27.3	27.3	27.3	90	24.8	0	0	---	0.00	30.096 
05:50	27.3	27.3	27.3	90	24.8	0	0	---	0.00	30.096 
05:55	27.3	27.3	27.3	90	24.8	0	0	---	0.00	30.096 
06:00	27.3	27.3	27.3	90	24.8	0	0	---	0.00	30.102 
06:05	27.3	27.3	27.3	90	24.8	0	0	---	0.00	30.102 
06:10	27.2	27.2	27.2	90	24.7	0	0	---	0.00	30.102 
06:15	27.0	27.0	27.0	89	24.2	0	0	---	0.00	30.107 
06:20	26.9	26.9	26.9	89	24.1	0	0	---	0.00	30.107 
06:25	26.9	26.9	26.9	89	24.1	0	0	---	0.00	30.107 
06:30	26.9	26.9	26.9	89	24.1	0	0	---	0.00	30.114 
06:35	26.9	26.9	26.9	89	24.1	0	0	---	0.00	30.114 
06:40	26.9	26.9	26.9	89	24.1	0	0	---	0.00	30.114 
06:45	26.7	26.7	26.7	89	23.9	0	0	---	0.00	30.124 
06:50	26.7	26.7	26.7	89	23.9	0	0	---	0.00	30.124 
06:55	26.7	26.7	26.7	89	23.9	0	0	---	0.00	30.124 
07:00	26.7	26.7	26.7	89	23.9	0	0	---	0.00	30.125 
07:05	26.7	26.7	26.7	89	23.9	0	0	---	0.00	30.125 
07:10	26.6	26.6	26.6	89	23.8	0	0	---	0.00	30.125 
07:15	26.4	26.4	26.4	89	23.6	0	0	---	0.00	30.138 
07:20	26.4	26.4	26.4	89	23.6	0	0	---	0.00	30.138 
07:25	26.4	26.4	26.4	88	23.3	0	0	---	0.00	30.138 
07:30	26.4	26.4	26.4	88	23.3	0	0	---	0.00	30.142 
07:35	26.3	26.3	26.3	88	23.2	0	0	---	0.00	30.142 
07:40	26.3	26.3	26.3	88	23.2	0	0	---	0.00	30.142 
07:45	26.3	26.3	26.3	88	23.2	0	0	---	0.00	30.148 
07:50	26.3	26.3	26.3	88	23.2	0	0	---	0.00	30.148 
07:55	26.1	26.1	26.1	88	23.0	0	0	---	0.00	30.148 
08:00	26.1	26.1	26.1	88	23.0	0	0	---	0.00	30.158 
08:05	26.1	26.1	26.1	88	23.0	0	0	---	0.00	30.158 
08:10	26.1	26.1	26.1	88	23.0	0	0	---	0.00	30.158 
08:15	26.1	26.1	26.1	88	23.0	0	0	---	0.00	30.170 
08:20	26.1	26.1	26.1	88	23.0	0	0	---	0.00	30.170 
08:25	26.1	26.1	26.1	88	23.0	0	0	---	0.00	30.170 
08:30	26.1	26.1	26.1	88	23.0	0	0	---	0.00	30.172 
08:35	26.1	26.1	26.1	88	23.0	0	0	---	0.00	30.172 
08:40	26.1	26.1	26.1	87	22.8	0	0	---	0.00	30.172 
08:45	26.3	26.3	26.3	87	23.0	0	0	---	0.00	30.171 
08:50	26.4	26.4	26.4	87	23.1	0	0	---	0.00	30.171 
08:55	26.4	26.4	26.4	87	23.1	0	0	---	0.00	30.171 
09:00	26.6	26.6	26.6	87	23.3	0	0	---	0.00	30.170 
09:05	26.7	26.7	26.7	86	23.1	0	0	---	0.00	30.170 
09:10	26.9	26.9	26.9	86	23.3	0	0	---	0.00	30.170 
09:15	26.9	26.9	26.9	85	23.0	0	0	---	0.00	30.170 
09:20	27.0	27.0	27.0	85	23.1	0	0	---	0.00	30.170 
09:25	27.2	27.2	27.2	84	23.0	0	0	---	0.00	30.170 
09:30	27.3	27.3	27.3	84	23.1	0	0	---	0.00	30.172 
09:35	27.3	27.3	27.3	84	23.1	0	0	---	0.00	30.172 
09:40	27.5	27.5	27.5	84	23.3	0	0	---	0.00	30.172 
09:45	27.5	27.5	27.5	83	23.0	0	0	---	0.00	30.179 
09:50	27.6	27.6	27.6	82	22.8	0	1	45	0.00	30.179 
09:55	27.9	27.9	27.9	82	23.1	0	0	---	0.00	30.179 
10:00	28.2	28.2	28.2	82	23.4	0	0	---	0.00	30.186 
10:05	28.2	28.2	28.2	81	23.1	0	0	---	0.00	30.186 
10:10	28.2	28.2	28.2	81	23.1	0	1	45	0.00	30.186 
10:15	28.5	28.5	28.5	80	23.1	0	1	45	0.00	30.188 
10:20	28.7	28.7	28.7	79	23.0	0	3	315	0.01	30.188 
10:25	28.8	28.8	28.8	79	23.1	0	1	315	0.01	30.188 
10:30	29.0	29.0	29.0	79	23.3	0	0	---	0.00	30.191 
10:35	29.1	29.1	29.1	79	23.4	0	0	---	0.01	30.191 
10:40	29.1	29.1	29.1	78	23.1	0	0	---	0.00	30.191 
10:45	28.7	28.7	28.7	77	22.4	0	0	---	0.00	30.200 
10:50	28.4	28.4	28.4	77	22.1	0	0	---	0.00	30.200 
10:55	29.0	29.0	29.0	78	23.0	0	1	315	0.00	30.200 
11:00	29.8	29.8	29.8	78	23.8	1	3	45	0.01	30.202 
11:05	30.7	30.7	30.7	78	24.7	0	3	45	0.00	30.202 
11:10	31.3	31.3	31.3	77	24.9	0	2	45	0.00	30.202 
11:15	31.8	31.8	31.8	75	24.8	0	1	45	0.01	30.199 
11:20	31.9	31.9	31.9	74	24.6	0	3	45	0.00	30.199 
11:25	31.8	31.8	31.8	73	24.1	1	4	45	0.01	30.199 
11:30	31.5	31.5	31.5	73	23.9	1	3	45	0.00	30.199 
11:35	31.6	31.6	31.6	73	24.0	0	2	45	0.00	30.199 
11:40	31.9	31.9	31.9	70	23.2	0	2	45	0.01	30.199 
11:45	31.2	31.2	31.2	71	22.9	1	5	45	0.00	30.213 
11:50	30.9	30.9	30.9	73	23.3	0	2	0	0.00	30.213 
11:55	31.3	31.3	31.3	73	23.7	0	4	0	0.00	30.213 
12:00	31.5	31.5	31.5	73	23.9	0	2	45	0.01	30.203 
12:05	31.8	31.8	31.8	72	23.8	1	3	45	0.00	30.203 
12:10	31.9	31.9	31.9	72	23.9	0	2	45	0.00	30.203 
12:15	31.9	31.9	31.9	72	23.9	0	1	45	0.00	30.199 
12:20	32.2	32.2	32.2	71	23.9	1	4	45	0.01	30.199 
12:25	32.2	32.2	32.2	71	23.9	0	2	45	0.00	30.199 
12:30	32.1	32.1	32.1	70	23.4	0	3	45	0.00	30.197 
12:35	32.1	32.1	32.1	71	23.8	0	2	45	0.00	30.197 
12:40	32.2	32.2	32.2	71	23.9	0	2	45	0.00	30.197 
12:45	32.2	32.2	32.2	71	23.9	0	2	45	0.01	30.199 
12:50	32.2	32.2	32.2	71	23.9	0	1	45	0.00	30.199 
12:55	32.4	32.4	32.4	71	24.1	1	3	45	0.00	30.199 
13:00	32.4	32.4	32.4	71	24.1	0	3	45	0.00	30.197 
13:05	32.5	32.5	32.5	70	23.8	0	2	45	0.00	30.197 
13:10	32.4	32.4	32.4	70	23.7	0	3	45	0.00	30.197 
13:15	32.1	32.1	32.1	69	23.1	1	3	45	0.00	30.190 
13:20	31.9	31.9	31.9	69	22.9	2	4	45	0.00	30.190 
13:25	31.8	31.8	31.8	71	23.5	1	4	45	0.00	30.190 
13:30	31.8	31.8	31.8	70	23.2	1	4	45	0.01	30.194 
13:35	31.9	31.9	31.9	70	23.2	1	4	45	0.00	30.194 
13:40	31.9	31.9	31.9	70	23.2	0	1	45	0.00	30.194 
13:45	31.9	31.9	31.9	70	23.2	1	4	45	0.00	30.183 
13:50	32.1	32.1	32.1	70	23.4	0	2	45	0.00	30.183 
13:55	32.4	32.4	32.4	70	23.7	1	3	45	0.00	30.183 
14:00	32.5	32.5	32.5	70	23.8	0	1	45	0.00	30.181 
14:05	32.4	32.4	32.4	70	23.7	1	2	45	0.00	30.181 
14:10	32.4	32.4	32.4	70	23.7	1	3	45	0.00	30.181 
14:15	32.5	32.5	32.5	72	24.5	0	4	45	0.00	30.184 
14:20	32.5	32.5	32.5	70	23.8	0	2	45	0.00	30.184 
14:25	32.4	32.4	32.4	69	23.4	0	2	45	0.00	30.184 
14:30	32.4	32.4	32.4	69	23.4	0	1	45	0.00	30.199 
14:35	32.2	32.2	32.2	69	23.2	0	1	45	0.00	30.199 
14:40	32.4	32.4	32.4	70	23.7	0	1	45	0.00	30.199 
14:45	32.4	32.4	32.4	70	23.7	0	1	45	0.00	30.197 
14:50	32.5	32.5	32.5	69	23.5	0	2	45	0.00	30.197 
14:55	32.4	32.4	32.4	67	22.7	1	3	45	0.00	30.197 
15:00	32.4	32.4	32.4	68	23.0	0	1	45	0.00	30.188 
15:05	32.4	32.4	32.4	68	23.0	0	1	45	0.00	30.188 
15:10	32.8	32.8	32.8	69	23.8	0	1	45	0.00	30.188 
15:15	32.9	32.9	32.9	69	23.9	1	3	45	0.00	30.179 
15:20	33.1	33.1	33.1	69	24.1	0	2	45	0.00	30.179 
15:25	32.9	32.9	32.9	68	23.5	0	2	45	0.00	30.179 
15:30	32.9	32.9	32.9	69	23.9	0	1	45	0.00	30.180 
15:35	33.1	33.1	33.1	69	24.1	0	2	45	0.00	30.180 
15:40	33.1	33.1	33.1	69	24.1	0	1	45	0.00	30.180 
15:45	32.9	32.9	32.9	66	22.8	1	2	45	0.00	30.183 
15:50	32.8	32.8	32.8	66	22.7	0	1	45	0.00	30.183 
15:55	32.8	32.8	32.8	67	23.1	0	2	45	0.00	30.183 
16:00	32.7	32.7	32.7	68	23.3	0	1	45	0.00	30.186 
16:05	32.7	32.7	32.7	68	23.3	0	1	45	0.00	30.186 
16:10	32.8	32.8	32.8	67	23.1	0	1	45	0.00	30.186 
16:15	32.8	32.8	32.8	69	23.8	0	1	45	0.00	30.176 
16:20	32.7	32.7	32.7	69	23.7	0	3	45	0.00	30.176 
16:25	32.5	32.5	32.5	70	23.8	1	2	68	0.00	30.176 
16:30	32.5	32.5	32.5	70	23.8	1	3	68	0.00	30.173 
16:35	32.4	32.4	32.4	70	23.7	0	2	112	0.00	30.173 
16:40	32.4	32.4	32.4	70	23.7	1	2	112	0.00	30.173 
16:45	32.4	32.4	32.4	71	24.1	1	2	112	0.00	30.168 
16:50	32.2	32.2	32.2	71	23.9	1	4	112	0.00	30.168 
16:55	32.2	32.2	32.2	71	23.9	0	2	112	0.00	30.168 
17:00	32.1	32.1	32.1	72	24.1	0	1	112	0.00	30.176 
17:05	32.1	32.1	32.1	72	24.1	0	2	112	0.00	30.176 
17:10	32.1	32.1	32.1	73	24.4	0	2	112	0.00	30.176 
17:15	32.1	32.1	32.1	73	24.4	0	1	112	0.00	30.183 
17:20	32.1	32.1	32.1	73	24.4	0	1	112	0.00	30.183 
17:25	31.9	31.9	31.9	72	23.9	0	2	112	0.00	30.183 
17:30	31.8	31.8	31.8	71	23.5	0	1	112	0.00	30.181 
17:35	31.8	31.8	31.8	72	23.8	0	2	112	0.00	30.181 
17:40	31.8	31.8	31.8	72	23.8	0	2	112	0.00	30.181 
17:45	31.8	31.8	31.8	73	24.1	0	1	112	0.00	30.179 
17:50	31.8	31.8	31.8	72	23.8	1	3	112	0.00	30.179 
17:55	31.8	31.8	31.8	72	23.8	0	2	112	0.00	30.179 
18:00	31.6	31.6	31.6	71	23.3	0	3	112	0.00	30.173 
18:05	31.6	31.6	31.6	70	23.0	1	4	112	0.00	30.173 
18:10	31.5	31.5	31.5	70	22.9	0	1	112	0.00	30.173 
18:15	31.5	31.5	31.5	70	22.9	0	3	112	0.00	30.176 
18:20	31.5	31.5	31.5	70	22.9	0	1	112	0.00	30.176 
18:25	31.5	31.5	31.5	70	22.9	0	2	112	0.00	30.176 
18:30	31.3	31.3	31.3	69	22.3	0	2	112	0.00	30.178 
18:35	31.3	31.3	31.3	68	22.0	0	2	112	0.00	30.178 
18:40	31.2	31.2	31.2	69	22.2	0	1	112	0.00	30.178 
18:45	31.0	31.0	31.0	69	22.0	0	1	112	0.00	30.174 
18:50	30.9	30.9	30.9	69	21.9	0	1	112	0.00	30.174 
18:55	30.9	30.9	30.9	68	21.6	0	1	112	0.00	30.174 
19:00	30.7	30.7	30.7	68	21.4	0	0	---	0.00	30.181 
19:05	30.7	30.7	30.7	68	21.4	0	1	112	0.00	30.181 
19:10	30.7	30.7	30.7	69	21.8	0	1	112	0.00	30.181 
19:15	30.7	30.7	30.7	70	22.1	0	1	112	0.00	30.184 
19:20	30.7	30.7	30.7	70	22.1	0	0	---	0.00	30.184 
19:25	30.7	30.7	30.7	70	22.1	0	0	---	0.00	30.184 
19:30	30.6	30.6	30.6	72	22.7	0	0	---	0.00	30.184 
19:35	30.6	30.6	30.6	71	22.3	0	1	112	0.00	30.184 
19:40	30.6	30.6	30.6	71	22.3	0	1	112	0.00	30.184 
19:45	30.4	30.4	30.4	71	22.1	0	1	112	0.00	30.172 
19:50	30.3	30.3	30.3	70	21.7	0	2	112	0.00	30.172 
19:55	30.1	30.1	30.1	70	21.5	0	2	112	0.00	30.172 
20:00	30.0	30.0	30.0	69	21.1	0	1	112	0.00	30.166 
20:05	29.8	29.8	29.8	70	21.2	0	1	112	0.00	30.166 
20:10	29.8	29.8	29.8	70	21.2	0	1	112	0.00	30.166 
20:15	29.7	29.7	29.7	71	21.5	0	0	---	0.00	30.173 
20:20	29.7	29.7	29.7	71	21.5	0	1	112	0.00	30.173 
20:25	29.7	29.7	29.7	71	21.5	0	1	112	0.00	30.173 
20:30	29.5	29.5	29.5	70	20.9	0	3	112	0.00	30.166 
20:35	29.5	29.5	29.5	70	20.9	0	1	112	0.00	30.166 
20:40	29.5	29.5	29.5	70	20.9	0	1	112	0.00	30.166 
20:45	29.5	29.5	29.5	71	21.3	0	0	---	0.00	30.165 
20:50	29.4	29.4	29.4	71	21.2	0	0	---	0.00	30.165 
20:55	29.3	29.3	29.3	72	21.4	0	0	---	0.00	30.165 
21:00	29.3	29.3	29.3	72	21.4	0	1	112	0.00	30.167 
21:05	29.3	29.3	29.3	72	21.4	0	1	112	0.00	30.167 
21:10	29.3	29.3	29.3	72	21.4	0	3	112	0.00	30.167 
21:15	29.4	29.4	29.4	72	21.5	0	2	112	0.00	30.169 
21:20	29.4	29.4	29.4	73	21.8	0	0	---	0.00	30.169 
21:25	29.5	29.5	29.5	72	21.6	1	4	112	0.00	30.169 
21:30	29.5	29.5	29.5	71	21.3	0	1	112	0.00	30.171 
21:35	29.5	29.5	29.5	71	21.3	0	1	112	0.00	30.171 
21:40	29.5	29.5	29.5	72	21.6	0	1	112	0.00	30.171 
21:45	29.5	29.5	29.5	72	21.6	0	1	112	0.00	30.170 
21:50	29.4	29.4	29.4	72	21.5	0	1	112	0.00	30.170 
21:55	29.4	29.4	29.4	72	21.5	0	0	---	0.00	30.170 
22:00	29.4	29.4	29.4	73	21.8	0	0	---	0.00	30.174 
22:05	29.3	29.3	29.3	73	21.7	0	0	---	0.00	30.174 
22:10	29.3	29.3	29.3	73	21.7	0	0	---	0.00	30.174 
22:15	29.1	29.1	29.1	74	21.9	0	0	---	0.00	30.170 
22:20	29.1	29.1	29.1	74	21.9	0	0	---	0.00	30.170 
22:25	29.0	29.0	29.0	74	21.8	0	0	---	0.00	30.170 
22:30	29.0	29.0	29.0	74	21.8	0	0	---	0.00	30.167 
22:35	29.0	29.0	29.0	74	21.8	0	0	---	0.00	30.167 
22:40	29.0	29.0	29.0	74	21.8	0	0	---	0.00	30.167 
22:45	29.0	29.0	29.0	74	21.8	0	0	---	0.00	30.172 
22:50	29.0	29.0	29.0	74	21.8	0	0	---	0.00	30.172 
22:55	29.0	29.0	29.0	74	21.8	0	0	---	0.00	30.172 
23:00	29.0	29.0	29.0	74	21.8	0	0	---	0.00	30.172 
23:05	29.0	29.0	29.0	74	21.8	0	0	---	0.00	30.172 
23:10	29.0	29.0	29.0	75	22.1	0	0	---	0.00	30.172 
23:15	29.0	29.0	29.0	74	21.8	0	0	---	0.00	30.169 
23:20	29.0	29.0	29.0	75	22.1	0	0	---	0.00	30.169 
23:25	29.1	29.1	29.1	75	22.2	0	0	---	0.00	30.169 
23:30	29.1	29.1	29.1	74	21.9	0	0	---	0.00	30.159 
23:35	29.3	29.3	29.3	74	22.1	0	0	---	0.00	30.159 
23:40	29.4	29.4	29.4	74	22.2	0	0	---	0.00	30.159 
23:45	29.4	29.4	29.4	75	22.5	0	0	---	0.00	30.158 
23:50	29.4	29.4	29.4	74	22.2	0	0	---	0.00	30.158 
23:55	29.4	29.4	29.4	74	22.2	0	0	---	0.00	30.158 

CoCoRaHS
IN-AL-39
A2 Web Hosting
Creative Commons License
GoDaddy
search engine by freefind advanced

loaded 2018-11-14 03:43:50 • last modified 2010-11-18 10:43:29
Privacy PolicyDisclaimer
• wx.awcolley.com is powered by PmWiki v.2002016 •
• all content (unless otherwise noted) © 2018 A W Colley